createdAt,value
2023-06-30T00:04:09.917Z,22.30
2023-06-30T00:09:13.723Z,22.20
2023-06-30T00:14:17.485Z,22.20
2023-06-30T00:19:24.521Z,22.10
2023-06-30T00:24:28.268Z,22.10
2023-06-30T00:29:31.700Z,22.00
2023-06-30T00:34:37.192Z,22.00
2023-06-30T00:39:40.906Z,22.00
2023-06-30T00:44:45.393Z,22.00
2023-06-30T00:49:50.692Z,21.90
2023-06-30T00:54:54.172Z,21.80
2023-06-30T00:59:57.786Z,21.80
2023-06-30T01:05:09.062Z,21.80
2023-06-30T01:10:17.082Z,21.80
2023-06-30T01:15:21.584Z,21.80
2023-06-30T01:20:31.740Z,21.80
2023-06-30T01:25:36.200Z,21.80
2023-06-30T01:30:41.093Z,21.80
2023-06-30T01:35:46.495Z,21.80
2023-06-30T01:40:51.152Z,21.80
2023-06-30T01:45:56.012Z,21.70
2023-06-30T01:51:02.058Z,21.70
2023-06-30T01:56:05.777Z,21.70
2023-06-30T02:01:09.290Z,21.60
2023-06-30T02:06:15.706Z,21.60
2023-06-30T02:11:19.281Z,21.60
2023-06-30T02:16:22.785Z,21.60
2023-06-30T02:21:27.966Z,21.60
2023-06-30T02:26:31.967Z,21.60
2023-06-30T02:31:35.808Z,21.50
2023-06-30T02:36:49.746Z,21.50
2023-06-30T02:41:55.859Z,21.50
2023-06-30T02:46:59.321Z,21.50
2023-06-30T02:52:04.289Z,21.50
2023-06-30T02:57:07.773Z,21.50
2023-06-30T03:02:11.469Z,21.50
2023-06-30T03:07:17.872Z,21.40
2023-06-30T03:12:21.559Z,21.50
2023-06-30T03:17:25.549Z,21.40
2023-06-30T03:22:30.501Z,21.40
2023-06-30T03:27:34.976Z,21.40
2023-06-30T03:32:38.474Z,21.40
2023-06-30T03:37:44.877Z,21.40
2023-06-30T03:42:48.565Z,21.40
2023-06-30T03:47:52.030Z,21.40
2023-06-30T03:52:56.892Z,21.30
2023-06-30T03:58:00.331Z,21.30
2023-06-30T04:03:04.040Z,21.30
2023-06-30T04:08:09.280Z,21.30
2023-06-30T04:13:12.857Z,21.30
2023-06-30T04:18:16.732Z,21.30
2023-06-30T04:23:22.204Z,21.20
2023-06-30T04:28:25.866Z,21.30
2023-06-30T04:33:29.316Z,21.30
2023-06-30T04:38:34.189Z,21.20
2023-06-30T04:43:37.681Z,21.20
2023-06-30T04:48:41.166Z,21.20
2023-06-30T04:53:46.039Z,21.20
2023-06-30T04:58:51.273Z,21.20
2023-06-30T05:03:55.891Z,21.20
2023-06-30T05:09:01.045Z,21.20
2023-06-30T05:14:04.902Z,21.20
2023-06-30T05:19:09.330Z,21.20
2023-06-30T05:24:14.201Z,21.20
2023-06-30T05:29:17.811Z,21.20
2023-06-30T05:34:21.751Z,21.20
2023-06-30T05:39:26.562Z,21.20
2023-06-30T05:44:30.361Z,21.30
2023-06-30T05:49:33.861Z,21.30
2023-06-30T05:54:38.688Z,21.40
2023-06-30T05:59:42.149Z,21.40
2023-06-30T06:04:45.663Z,21.50
2023-06-30T06:09:50.731Z,21.60
2023-06-30T06:14:54.517Z,21.60
2023-06-30T06:19:59.300Z,21.70
2023-06-30T06:25:04.588Z,21.80
2023-06-30T06:30:09.801Z,21.90
2023-06-30T06:35:13.665Z,21.90
2023-06-30T06:40:18.473Z,22.00
2023-06-30T06:45:21.986Z,22.10
2023-06-30T06:50:25.432Z,22.20
2023-06-30T06:55:30.426Z,22.20
2023-06-30T07:00:33.936Z,22.30
2023-06-30T07:05:37.449Z,22.40
2023-06-30T07:10:42.993Z,22.50
2023-06-30T07:15:48.889Z,22.60
2023-06-30T07:20:54.758Z,22.60
2023-06-30T07:25:59.599Z,22.70
2023-06-30T07:31:03.259Z,22.80
2023-06-30T07:36:08.578Z,22.90
2023-06-30T07:41:13.918Z,23.00
2023-06-30T07:46:17.561Z,23.20
2023-06-30T07:51:21.185Z,23.30
2023-06-30T07:56:26.156Z,23.40
2023-06-30T08:01:29.639Z,23.50
2023-06-30T08:06:33.135Z,23.60
2023-06-30T08:11:38.379Z,23.60
2023-06-30T08:16:42.075Z,23.70
2023-06-30T08:21:46.724Z,23.80
2023-06-30T08:26:52.649Z,23.90
2023-06-30T08:31:56.273Z,24.00
2023-06-30T08:36:59.767Z,24.10
2023-06-30T08:42:07.776Z,24.20
2023-06-30T08:47:12.999Z,24.20
2023-06-30T08:52:17.236Z,24.30
2023-06-30T08:57:23.729Z,24.40
2023-06-30T09:02:32.810Z,24.40
2023-06-30T09:07:44.218Z,24.40
2023-06-30T09:12:52.351Z,24.50
2023-06-30T09:17:57.031Z,24.50
2023-06-30T09:23:04.784Z,24.50
2023-06-30T09:28:16.425Z,24.60
2023-06-30T09:33:21.750Z,24.50
2023-06-30T09:38:29.476Z,24.60
2023-06-30T09:43:38.343Z,24.60
2023-06-30T09:48:44.424Z,24.60
2023-06-30T09:53:48.303Z,24.70
2023-06-30T09:58:58.026Z,24.70
2023-06-30T10:04:01.752Z,24.70
2023-06-30T10:09:05.843Z,24.70
2023-06-30T10:14:56.609Z,24.80
2023-06-30T10:20:12.161Z,24.80
2023-06-30T10:25:21.821Z,24.80
2023-06-30T10:30:26.018Z,24.90
2023-06-30T10:35:32.702Z,24.90
2023-06-30T10:40:36.951Z,24.90
2023-06-30T10:46:12.765Z,24.90
2023-06-30T10:51:19.519Z,24.90
2023-06-30T10:56:24.998Z,24.90
2023-06-30T11:01:29.577Z,24.90
2023-06-30T11:06:37.714Z,25.00
2023-06-30T11:11:59.512Z,25.00
2023-06-30T11:17:05.775Z,25.10
2023-06-30T11:22:28.155Z,25.20
2023-06-30T11:27:32.978Z,25.20
2023-06-30T11:32:38.674Z,25.30
2023-06-30T11:37:49.674Z,25.30
2023-06-30T11:42:54.204Z,25.30
2023-06-30T11:47:58.613Z,25.40
2023-06-30T11:53:04.363Z,25.40
2023-06-30T11:58:09.981Z,25.50
2023-06-30T12:03:18.146Z,25.40
2023-06-30T12:08:25.256Z,25.50
2023-06-30T12:13:30.445Z,25.50
2023-06-30T12:18:38.215Z,25.60
2023-06-30T12:23:47.546Z,25.60
2023-06-30T12:28:52.431Z,25.50
2023-06-30T12:33:56.108Z,25.50
2023-06-30T12:39:01.291Z,25.50
2023-06-30T12:44:05.799Z,25.50
2023-06-30T12:49:09.682Z,25.40
2023-06-30T12:54:14.623Z,25.40
2023-06-30T12:59:19.049Z,25.40
2023-06-30T13:04:23.067Z,25.40
2023-06-30T13:09:28.489Z,25.30
2023-06-30T13:14:32.608Z,25.40
2023-06-30T13:19:36.091Z,25.40
2023-06-30T13:24:41.224Z,25.30
2023-06-30T13:29:48.659Z,25.30
2023-06-30T13:34:53.604Z,25.30
2023-06-30T13:39:58.411Z,25.20
2023-06-30T13:45:01.942Z,25.20
2023-06-30T13:50:06.037Z,25.30
2023-06-30T13:55:11.328Z,25.40
2023-06-30T14:00:15.953Z,25.40
2023-06-30T14:05:19.600Z,25.60
2023-06-30T14:10:24.521Z,25.60
2023-06-30T14:15:29.982Z,25.60
2023-06-30T14:20:33.581Z,25.70
2023-06-30T14:25:38.702Z,25.70
2023-06-30T14:30:42.375Z,25.80
2023-06-30T14:35:46.129Z,25.80
2023-06-30T14:40:51.186Z,25.90
2023-06-30T14:45:54.702Z,25.90
2023-06-30T14:50:58.152Z,26.00
2023-06-30T14:56:03.393Z,26.10
2023-06-30T15:01:06.985Z,26.20
2023-06-30T15:06:10.647Z,26.30
2023-06-30T15:11:15.740Z,26.30
2023-06-30T15:16:19.590Z,26.30
2023-06-30T15:21:23.192Z,26.30
2023-06-30T15:26:28.115Z,26.40
2023-06-30T15:31:32.351Z,26.40
2023-06-30T15:36:35.866Z,26.30
2023-06-30T15:41:40.688Z,26.20
2023-06-30T15:46:44.305Z,26.10
2023-06-30T15:51:48.080Z,25.90
2023-06-30T15:56:53.608Z,25.70
2023-06-30T16:01:57.794Z,25.60
2023-06-30T16:07:01.977Z,25.50
2023-06-30T16:12:09.509Z,25.40
2023-06-30T16:17:13.002Z,25.30
2023-06-30T16:22:16.944Z,25.20
2023-06-30T16:27:22.015Z,25.10
2023-06-30T16:32:27.299Z,25.00
2023-06-30T16:37:34.827Z,25.00
2023-06-30T16:42:44.441Z,24.80
2023-06-30T16:47:50.227Z,24.80
2023-06-30T16:52:54.032Z,24.60
2023-06-30T16:58:03.406Z,24.50
2023-06-30T17:03:07.417Z,24.40
2023-06-30T17:08:11.693Z,24.30
2023-06-30T17:13:17.302Z,24.30
2023-06-30T17:18:22.261Z,24.20
2023-06-30T17:23:27.869Z,24.10
2023-06-30T17:28:33.027Z,24.10
2023-06-30T17:33:37.059Z,24.00
2023-06-30T17:38:40.517Z,23.90
2023-06-30T17:43:45.374Z,23.90
2023-06-30T17:48:57.600Z,23.80
2023-06-30T17:54:01.303Z,23.80
2023-06-30T17:59:06.084Z,23.70
2023-06-30T18:04:09.856Z,23.60
2023-06-30T18:09:13.334Z,23.60
2023-06-30T18:14:18.582Z,23.50
2023-06-30T18:19:23.322Z,23.50
2023-06-30T18:24:26.885Z,23.40
2023-06-30T18:29:32.038Z,23.40
2023-06-30T18:34:36.314Z,23.30
2023-06-30T18:39:40.046Z,23.20
2023-06-30T18:44:45.004Z,23.20
2023-06-30T18:49:48.486Z,23.10
2023-06-30T18:54:52.991Z,23.00
2023-06-30T18:59:57.800Z,23.00
2023-06-30T19:05:01.399Z,22.90
2023-06-30T19:10:05.283Z,22.80
2023-06-30T19:15:11.356Z,22.80
2023-06-30T19:20:14.891Z,22.70
2023-06-30T19:25:20.100Z,22.70
2023-06-30T19:30:26.053Z,22.60
2023-06-30T19:35:29.977Z,22.60
2023-06-30T19:40:33.967Z,22.50
2023-06-30T19:45:55.626Z,22.50
2023-06-30T20:03:01.303Z,22.30
2023-06-30T20:08:05.428Z,22.20
2023-06-30T20:13:09.024Z,22.20
2023-06-30T20:18:14.851Z,22.10
2023-06-30T20:23:20.743Z,22.10
2023-06-30T20:28:24.230Z,22.00
2023-06-30T20:33:29.127Z,21.90
2023-06-30T20:38:32.698Z,21.90
2023-06-30T20:43:36.199Z,21.80
2023-06-30T20:48:41.051Z,21.70
2023-06-30T20:53:44.491Z,21.70
2023-06-30T20:58:48.644Z,21.60
2023-06-30T21:03:54.213Z,21.60
2023-06-30T21:08:57.746Z,21.60
